Nearby METAR Reports

 

EGQL - Leuchars Raf, United Kingdom
Distance from station: SW 17km
Updated: 11/07/2020 17:50
Clear
Clear
 Wind from W
Wind: W 17 mph , 28 km/h
Temperature: 19°C
Dew Point: 8°C
Humidity: 49%
Barometer: 1023 hPa
Summary: Clear
Visibility: greater than 7 miles , 10 km
2020/07/11 15:50 EGQL 111550Z 27015KT CAVOK 19/08 Q1023 BLU
EGPN - Dundee/Riverside, United Kingdom
Distance from station: WSW 20km
Updated: 11/07/2020 16:50
NOT Current
Partly cloudy
Partly cloudy
 Wind from WSW
Wind: WSW 17 mph , 28 km/h
Temperature: 19°C
Dew Point: 11°C
Humidity: 60%
Barometer: 1023 hPa
Clouds: Partly cloudy
Visibility: 6 miles , 10 km
Cloud details: Partly cloudy 1372 m
2020/07/11 14:50 EGPN 111450Z 25015KT 9999 SCT045 19/11 Q1023
 
EGPH - Edinburgh Airpor, United Kingdom
Distance from station: SSW 74km
Updated: 11/07/2020 18:20
Partly cloudy
Partly cloudy
 Wind from W
Wind: W 13 mph , 20 km/h
Temperature: 17°C
Dew Point: 8°C
Humidity: 56%
Barometer: 1025 hPa
Clouds: Partly cloudy
Visibility: 6 miles , 10 km
Cloud details: Partly cloudy 1463 m
2020/07/11 16:20 EGPH 111620Z 26011KT 9999 SCT048 17/08 Q1025
EGPD - Aberdeen/Dyce, United Kingdom
Distance from station: NNE 82km
Updated: 11/07/2020 18:20
Few Clouds
Few Clouds
 Wind from NW
Wind: NW 10 mph , 17 km/h
Temperature: 17°C
Dew Point: 8°C
Humidity: 56%
Barometer: 1023 hPa
Clouds: Few Clouds
Visibility: 6 miles , 10 km
Cloud details: Few Clouds 1463 m
2020/07/11 16:20 EGPD 111620Z AUTO 31009KT 9999 FEW048 17/08 Q1023